Terminal Aerodrome Forecast
Issued by NWS

Home | Current Version | Previous Version | Text Only | Print | Product List | Glossary Off
Versions: 1 2 3 4 5 6 7 8 9 10 11 12 13 14 15 16 17 18 19

000
FTUS42 KMHX 172300
TAFOAJ
TAF
KOAJ 172320Z 1800/1824 24004KT P6SM SCT050 BKN100
     FM180900 00000KT 3SM BR BKN250
     FM181200 24006KT P6SM SCT040 BKN150
     FM181900 22007KT P6SM VCTS BKN050CB
      AMD LTD TO CLD VIS AND WIND=

USA.gov is the U.S. government's official web portal to all federal, state and local government web resources and services.